Time;durP1;ratioP1;P1;durP2;ratioP2;P2;SDS_P1;SDS_P2;PMS_P1;PMS_P2;Temp;Humidity;BMP_temperature;BMP_pressure;BME280_temperature;BME280_humidity;BME280_pressure;Samples;Min_cycle;Max_cycle;Signal;HPM_P1;HPM_P2
2022/07/30 00:01:20;;;;;;;19.33;17.97;;;17.30;99.90;;;;;;5030988;28;20217;-76
2022/07/30 00:03:46;;;;;;;18.00;16.33;;;17.30;99.90;;;;;;5029880;28;20191;-75
2022/07/30 00:06:12;;;;;;;23.70;22.30;;;17.20;99.90;;;;;;5030141;28;20175;-75
2022/07/30 00:08:38;;;;;;;20.20;18.43;;;17.20;99.90;;;;;;5029817;28;20182;-76
2022/07/30 00:11:03;;;;;;;43.87;41.13;;;17.10;99.90;;;;;;5030969;28;20266;-76
2022/07/30 00:13:30;;;;;;;62.87;59.37;;;17.00;99.90;;;;;;5030810;28;20211;-76
2022/07/30 00:15:57;;;;;;;52.43;49.27;;;17.10;99.90;;;;;;5029830;28;20195;-76
2022/07/30 00:18:22;;;;;;;22.77;21.27;;;17.10;99.90;;;;;;5030452;28;20647;-76
2022/07/30 00:20:48;;;;;;;55.40;52.33;;;17.00;99.90;;;;;;5031224;28;20706;-76
2022/07/30 00:23:14;;;;;;;64.33;60.93;;;16.90;99.90;;;;;;5030897;28;20175;-75
2022/07/30 00:25:40;;;;;;;86.20;81.30;;;16.90;99.90;;;;;;5031321;28;20189;-76
2022/07/30 00:28:06;;;;;;;81.83;77.40;;;16.90;99.90;;;;;;5028886;28;20170;-76
2022/07/30 00:30:31;;;;;;;152.10;143.90;;;16.90;99.90;;;;;;5029070;28;20189;-76
2022/07/30 00:32:57;;;;;;;73.70;69.80;;;17.00;99.90;;;;;;5031010;28;20208;-76
2022/07/30 00:35:23;;;;;;;238.43;225.73;;;16.80;99.90;;;;;;5029498;28;20706;-76
2022/07/30 00:37:49;;;;;;;232.27;219.83;;;16.90;99.90;;;;;;5029715;28;20286;-76
2022/07/30 00:40:15;;;;;;;206.90;195.50;;;16.80;99.90;;;;;;5029565;28;20722;-76
2022/07/30 00:42:45;;;;;;;237.23;224.67;;;16.70;99.90;;;;;;5029414;28;20566;-76
2022/07/30 00:45:13;;;;;;;251.30;237.77;;;16.70;99.90;;;;;;5029452;28;20261;-76
2022/07/30 00:47:40;;;;;;;172.10;162.97;;;16.70;99.90;;;;;;5029883;28;20559;-76
2022/07/30 00:50:09;;;;;;;129.50;122.63;;;16.70;99.90;;;;;;5030408;28;20179;-76
2022/07/30 00:52:39;;;;;;;170.13;161.00;;;16.70;99.90;;;;;;5030472;28;20191;-77
2022/07/30 00:55:08;;;;;;;188.33;177.87;;;16.70;99.90;;;;;;5035241;28;20830;-75
2022/07/30 00:57:33;;;;;;;55.20;51.93;;;16.80;99.90;;;;;;5032962;28;20248;-75
2022/07/30 01:00:00;;;;;;;93.97;88.30;;;16.70;99.90;;;;;;5033662;28;20368;-76
2022/07/30 01:02:27;;;;;;;216.77;205.03;;;16.70;99.90;;;;;;5034151;28;20214;-76
2022/07/30 01:04:53;;;;;;;177.47;168.03;;;16.70;99.90;;;;;;5032892;28;20202;-76
2022/07/30 01:07:19;;;;;;;170.80;161.47;;;16.70;99.90;;;;;;5033578;28;20181;-75
2022/07/30 01:09:46;;;;;;;54.77;51.57;;;16.80;99.90;;;;;;5034501;28;20182;-75
2022/07/30 01:12:18;;;;;;;61.33;58.03;;;16.80;99.90;;;;;;5034221;28;20534;-76
2022/07/30 01:14:44;;;;;;;88.13;83.63;;;16.90;99.90;;;;;;5036473;22;20723;-75
2022/07/30 01:17:10;;;;;;;55.90;52.63;;;17.00;99.90;;;;;;4993016;28;20176;-76
2022/07/30 01:19:48;;;;;;;25.33;23.93;;;17.00;99.90;;;;;;4996585;28;20215;-77
2022/07/30 01:22:28;;;;;;;34.07;32.10;;;16.90;99.90;;;;;;4998933;28;20279;-77
2022/07/30 01:25:07;;;;;;;29.13;27.30;;;16.80;99.90;;;;;;5003922;28;20669;-77
2022/07/30 01:27:44;;;;;;;73.50;69.67;;;16.70;99.90;;;;;;5016120;28;20184;-76
2022/07/30 01:30:13;;;;;;;80.67;76.27;;;16.60;99.90;;;;;;5013036;28;20191;-77
2022/07/30 01:32:42;;;;;;;103.30;97.67;;;16.50;99.90;;;;;;5007956;28;20184;-77
2022/07/30 01:35:10;;;;;;;129.53;122.50;;;16.50;99.90;;;;;;4997970;28;20231;-76
2022/07/30 01:37:37;;;;;;;89.37;84.43;;;16.50;99.90;;;;;;5005015;28;20248;-77
2022/07/30 01:40:04;;;;;;;42.03;39.63;;;16.50;99.90;;;;;;5006598;28;20194;-76
2022/07/30 01:42:32;;;;;;;27.97;26.30;;;16.50;99.90;;;;;;5005550;28;20227;-77
2022/07/30 01:44:59;;;;;;;19.50;18.07;;;16.50;99.90;;;;;;5004550;28;20225;-78
2022/07/30 01:47:28;;;;;;;26.30;24.50;;;16.50;99.90;;;;;;4999671;28;20665;-77
2022/07/30 01:49:56;;;;;;;26.43;24.43;;;16.40;99.90;;;;;;4997620;28;20227;-76
2022/07/30 01:52:23;;;;;;;51.60;48.70;;;16.40;99.90;;;;;;5001229;28;20247;-77
2022/07/30 01:54:51;;;;;;;61.20;57.90;;;16.40;99.90;;;;;;4997079;28;20214;-77
2022/07/30 01:57:19;;;;;;;46.63;43.83;;;16.40;99.90;;;;;;4996375;28;20189;-76
2022/07/30 01:59:48;;;;;;;38.17;35.67;;;16.40;99.90;;;;;;4994510;28;20184;-77
2022/07/30 02:02:15;;;;;;;41.50;38.60;;;16.40;99.90;;;;;;4995333;28;20590;-75
2022/07/30 02:04:41;;;;;;;47.87;44.90;;;16.40;99.90;;;;;;4994225;28;20304;-77
2022/07/30 02:07:30;;;;;;;48.27;45.10;;;16.50;99.90;;;;;;4994545;28;20284;-76
2022/07/30 02:10:25;;;;;;;20.60;19.37;;;16.50;99.90;;;;;;4994977;28;20711;-77
2022/07/30 02:12:55;;;;;;;17.83;16.63;;;16.50;99.90;;;;;;4987387;28;20560;-77
2022/07/30 02:15:53;;;;;;;18.93;17.53;;;16.50;99.90;;;;;;4993217;28;20218;-76
2022/07/30 02:18:32;;;;;;;19.53;18.33;;;16.50;99.90;;;;;;4993914;28;20180;-76
2022/07/30 02:21:02;;;;;;;19.43;17.90;;;16.40;99.90;;;;;;4992900;28;20214;-77
2022/07/30 02:23:34;;;;;;;18.40;16.90;;;16.40;99.90;;;;;;4994349;28;20243;-77
2022/07/30 02:26:02;;;;;;;19.47;18.00;;;16.30;99.90;;;;;;4994089;28;20542;-77
2022/07/30 02:28:33;;;;;;;21.80;20.43;;;16.20;99.90;;;;;;4993674;28;20179;-77
2022/07/30 02:31:00;;;;;;;17.90;16.60;;;16.20;99.90;;;;;;4993246;28;20259;-77
2022/07/30 02:33:32;;;;;;;15.97;14.77;;;16.10;99.90;;;;;;4994307;28;20248;-77
2022/07/30 02:35:59;;;;;;;43.43;40.93;;;16.10;99.90;;;;;;4992914;28;20180;-77
2022/07/30 02:38:27;;;;;;;45.33;42.63;;;16.10;99.90;;;;;;4992144;28;20276;-77
2022/07/30 02:40:58;;;;;;;46.97;44.13;;;16.00;99.90;;;;;;4993893;28;20220;-76
2022/07/30 02:43:25;;;;;;;44.83;42.23;;;16.00;99.90;;;;;;4994227;28;20581;-77
2022/07/30 02:45:52;;;;;;;34.47;32.00;;;15.90;99.90;;;;;;4993514;28;20207;-75
2022/07/30 02:48:21;;;;;;;24.90;23.17;;;15.90;99.90;;;;;;4991237;28;20203;-77
2022/07/30 02:50:52;;;;;;;27.40;25.20;;;15.90;99.90;;;;;;4992308;28;20250;-77
2022/07/30 02:53:19;;;;;;;23.70;22.07;;;15.90;99.90;;;;;;4991671;28;20185;-77
2022/07/30 02:55:46;;;;;;;33.03;30.87;;;15.90;99.90;;;;;;4994554;28;20209;-77
2022/07/30 02:58:18;;;;;;;42.20;39.50;;;15.80;99.90;;;;;;5002005;28;20185;-76
2022/07/30 03:00:45;;;;;;;19.83;18.27;;;15.70;99.90;;;;;;4993936;28;20302;-77
2022/07/30 03:03:12;;;;;;;30.23;28.03;;;15.70;99.90;;;;;;4993387;28;20173;-77
2022/07/30 03:05:40;;;;;;;24.13;22.43;;;15.70;99.90;;;;;;4993600;28;20196;-76
2022/07/30 03:08:07;;;;;;;43.87;41.27;;;15.60;99.90;;;;;;4991716;28;20211;-77
2022/07/30 03:10:34;;;;;;;47.97;45.00;;;15.60;99.90;;;;;;4996007;28;20195;-76
2022/07/30 03:13:03;;;;;;;49.57;46.87;;;15.50;99.90;;;;;;5001419;28;20181;-78
2022/07/30 03:16:14;;;;;;;42.07;39.73;;;15.50;99.90;;;;;;5071838;28;20585;-77
2022/07/30 03:18:42;;;;;;;101.00;95.67;;;15.50;99.90;;;;;;5071921;28;20181;-77
2022/07/30 03:21:10;;;;;;;85.33;80.63;;;15.40;99.90;;;;;;5067489;28;20654;-77
2022/07/30 03:23:38;;;;;;;46.70;43.80;;;15.40;99.90;;;;;;5067636;28;20186;-76
2022/07/30 03:26:07;;;;;;;50.50;47.73;;;15.30;99.90;;;;;;5047698;28;20182;-76
2022/07/30 03:28:37;;;;;;;42.77;39.97;;;15.40;99.90;;;;;;5045948;28;20675;-75
2022/07/30 03:31:05;;;;;;;51.57;48.57;;;15.30;99.90;;;;;;5046898;28;20182;-77
2022/07/30 03:33:32;;;;;;;40.53;38.13;;;15.20;99.90;;;;;;5048039;28;20175;-76
2022/07/30 03:35:58;;;;;;;42.93;40.60;;;15.20;99.90;;;;;;5048628;28;20714;-76
2022/07/30 03:38:24;;;;;;;53.27;50.33;;;15.10;99.90;;;;;;5047363;28;20183;-76
2022/07/30 03:40:52;;;;;;;32.23;30.10;;;15.10;99.90;;;;;;5048477;28;20182;-78
2022/07/30 03:43:18;;;;;;;34.63;32.40;;;15.00;99.90;;;;;;5048024;28;20229;-76
2022/07/30 03:45:45;;;;;;;54.33;51.37;;;14.90;99.90;;;;;;5046878;28;20203;-76
2022/07/30 03:48:12;;;;;;;24.80;23.27;;;14.90;99.90;;;;;;5048266;28;20178;-76
2022/07/30 03:50:42;;;;;;;19.50;18.07;;;14.90;99.90;;;;;;5054385;28;20266;-77
2022/07/30 03:53:10;;;;;;;17.33;15.47;;;14.90;99.90;;;;;;5057906;28;20193;-77
2022/07/30 03:55:36;;;;;;;15.30;14.03;;;15.00;99.90;;;;;;5049308;28;20845;-76
2022/07/30 03:58:02;;;;;;;16.43;15.07;;;14.90;99.90;;;;;;5045413;28;20183;-75
2022/07/30 04:00:28;;;;;;;16.83;15.60;;;14.90;99.90;;;;;;5046853;28;20185;-76
2022/07/30 04:02:55;;;;;;;16.00;15.00;;;14.90;99.90;;;;;;5046315;28;20175;-76
2022/07/30 04:05:21;;;;;;;34.03;32.23;;;14.90;99.90;;;;;;5047735;28;20221;-76
2022/07/30 04:07:47;;;;;;;27.13;25.57;;;14.80;99.90;;;;;;5047145;28;20217;-76
2022/07/30 04:10:15;;;;;;;23.07;21.53;;;14.80;99.90;;;;;;5047878;28;20677;-76
2022/07/30 04:12:41;;;;;;;72.47;68.37;;;14.80;99.90;;;;;;5048117;28;20312;-76
2022/07/30 04:15:08;;;;;;;99.03;93.70;;;14.70;99.90;;;;;;5052453;28;20214;-76
2022/07/30 04:17:41;;;;;;;83.80;79.30;;;14.70;99.90;;;;;;5051384;28;20186;-77
2022/07/30 04:20:13;;;;;;;45.10;42.53;;;14.70;99.90;;;;;;5047574;28;20193;-76
2022/07/30 04:22:39;;;;;;;37.33;35.23;;;14.70;99.90;;;;;;5080731;28;20182;-77
2022/07/30 04:25:07;;;;;;;35.93;33.83;;;14.70;99.90;;;;;;5047852;28;20690;-77
2022/07/30 04:27:35;;;;;;;34.33;32.23;;;14.80;99.90;;;;;;5033044;28;20213;-77
2022/07/30 04:30:02;;;;;;;33.13;31.13;;;14.80;99.90;;;;;;5033605;28;20410;-77
2022/07/30 04:32:27;;;;;;;39.10;36.73;;;14.80;99.90;;;;;;5034655;28;20278;-77
2022/07/30 04:34:55;;;;;;;33.93;31.83;;;14.90;99.90;;;;;;5036921;28;20242;-76
2022/07/30 04:37:23;;;;;;;81.10;76.50;;;14.90;99.90;;;;;;5034029;28;20596;-76
2022/07/30 04:39:53;;;;;;;141.57;134.17;;;15.00;99.90;;;;;;5033212;28;20236;-76
2022/07/30 04:42:20;;;;;;;191.07;180.43;;;15.00;99.90;;;;;;5032345;28;20729;-75
2022/07/30 04:44:47;;;;;;;174.10;164.70;;;15.00;99.90;;;;;;5032900;28;20199;-76
2022/07/30 04:47:13;;;;;;;163.50;154.37;;;15.10;99.90;;;;;;5032518;28;20752;-76
2022/07/30 04:49:40;;;;;;;90.47;85.10;;;15.10;99.90;;;;;;5032324;28;20177;-76
2022/07/30 04:52:09;;;;;;;16.13;14.67;;;15.20;99.90;;;;;;5032453;28;20548;-76
2022/07/30 04:54:42;;;;;;;10.33;9.60;;;15.30;99.90;;;;;;5033187;28;20294;-76
2022/07/30 04:57:19;;;;;;;12.27;11.33;;;15.30;99.90;;;;;;5029072;28;20658;-75
2022/07/30 04:59:45;;;;;;;27.70;25.83;;;15.40;99.90;;;;;;5032175;28;20189;-76
2022/07/30 05:02:14;;;;;;;30.23;28.43;;;15.50;99.90;;;;;;5033066;28;20183;-76
2022/07/30 05:04:41;;;;;;;45.87;43.03;;;15.70;99.90;;;;;;5031754;28;20199;-76
2022/07/30 05:07:08;;;;;;;82.83;78.33;;;15.90;99.90;;;;;;5030289;28;20277;-76
2022/07/30 05:09:35;;;;;;;24.83;23.13;;;16.20;99.90;;;;;;5031501;28;20186;-75
2022/07/30 05:12:00;;;;;;;92.03;86.77;;;16.40;99.90;;;;;;5032688;28;20182;-76
2022/07/30 05:14:27;;;;;;;23.53;21.97;;;16.70;99.90;;;;;;5032112;28;20215;-76
2022/07/30 05:16:53;;;;;;;159.00;150.93;;;16.90;99.90;;;;;;5032195;28;20201;-76
2022/07/30 05:19:20;;;;;;;110.60;104.50;;;17.30;99.90;;;;;;5031035;28;20261;-76
2022/07/30 05:21:47;;;;;;;30.47;28.60;;;17.80;99.90;;;;;;5032881;28;20182;-76
2022/07/30 05:24:13;;;;;;;33.37;31.40;;;18.30;99.90;;;;;;5031337;28;20210;-77
2022/07/30 05:26:39;;;;;;;9.83;9.00;;;18.70;99.90;;;;;;5032746;28;20274;-75
2022/07/30 05:29:06;;;;;;;32.80;30.90;;;18.90;99.90;;;;;;5023723;28;20237;-77
2022/07/30 05:31:32;;;;;;;46.77;44.33;;;19.20;99.90;;;;;;5014019;28;20648;-77
2022/07/30 05:33:58;;;;;;;88.00;83.40;;;19.40;99.90;;;;;;5022630;28;20211;-76
2022/07/30 05:36:24;;;;;;;51.43;48.73;;;19.60;99.90;;;;;;5030712;28;20198;-77
2022/07/30 05:38:49;;;;;;;74.00;70.30;;;19.60;99.90;;;;;;5029657;28;20279;-76
2022/07/30 05:41:15;;;;;;;120.03;114.00;;;19.90;99.90;;;;;;5029627;28;20265;-76
2022/07/30 05:43:41;;;;;;;57.87;54.77;;;20.30;99.90;;;;;;5034686;28;20171;-76
2022/07/30 05:46:07;;;;;;;13.73;12.83;;;20.60;99.90;;;;;;5034117;28;20179;-76
2022/07/30 05:48:34;;;;;;;14.27;13.47;;;20.90;99.90;;;;;;5031393;28;20561;-79
2022/07/30 05:51:04;;;;;;;11.33;10.63;;;21.00;99.90;;;;;;5036177;28;20175;-75
2022/07/30 05:53:30;;;;;;;11.73;10.97;;;21.30;99.90;;;;;;5033654;28;20178;-77
2022/07/30 05:55:57;;;;;;;21.02;19.92;;;21.50;99.90;;;;;;5030775;28;20202;-77
2022/07/30 05:58:23;;;;;;;38.33;36.30;;;22.10;99.90;;;;;;5029872;28;20187;-77
2022/07/30 06:00:49;;;;;;;42.17;39.85;;;22.30;99.90;;;;;;5031845;28;20270;-77
2022/07/30 06:03:15;;;;;;;29.83;28.08;;;22.60;99.90;;;;;;5031282;28;20266;-77
2022/07/30 06:05:41;;;;;;;26.50;25.08;;;22.80;99.90;;;;;;5029693;28;20237;-76
2022/07/30 06:08:08;;;;;;;15.60;14.63;;;23.00;99.90;;;;;;5029306;28;20285;-77
2022/07/30 06:10:33;;;;;;;11.05;10.35;;;23.20;99.90;;;;;;5031667;28;20187;-77
2022/07/30 06:12:59;;;;;;;9.70;9.10;;;23.70;99.90;;;;;;5029481;28;20855;-76
2022/07/30 06:15:26;;;;;;;17.40;16.15;;;23.90;99.90;;;;;;5030602;28;20203;-77
2022/07/30 06:17:52;;;;;;;23.13;21.77;;;23.90;99.90;;;;;;5030167;28;20304;-75
2022/07/30 06:20:19;;;;;;;24.83;23.27;;;24.30;99.90;;;;;;5030433;28;20189;-78
2022/07/30 06:22:45;;;;;;;47.58;45.08;;;24.80;99.90;;;;;;5032030;28;20194;-75
2022/07/30 06:25:11;;;;;;;25.35;23.73;;;24.90;99.90;;;;;;5029780;28;20211;-77
2022/07/30 06:27:38;;;;;;;19.45;18.30;;;25.50;99.90;;;;;;5030135;28;20187;-79
2022/07/30 06:30:06;;;;;;;9.30;8.60;;;25.70;99.90;;;;;;5030960;28;20202;-78
2022/07/30 06:32:33;;;;;;;8.55;7.78;;;25.90;99.90;;;;;;5030809;28;20269;-78
2022/07/30 06:34:58;;;;;;;8.52;7.85;;;25.90;99.90;;;;;;5029844;28;20202;-78
2022/07/30 06:37:24;;;;;;;13.27;12.23;;;26.20;99.90;;;;;;5031394;28;20197;-79
2022/07/30 06:39:51;;;;;;;16.52;15.63;;;26.50;99.90;;;;;;5034029;28;20175;-81
2022/07/30 06:42:17;;;;;;;14.63;13.43;;;26.80;99.90;;;;;;5038509;28;20183;-82
2022/07/30 06:44:43;;;;;;;7.25;6.68;;;27.00;99.90;;;;;;5048253;28;20217;-82
2022/07/30 06:47:09;;;;;;;6.32;5.90;;;26.90;99.90;;;;;;5042969;28;20211;-83
2022/07/30 06:49:36;;;;;;;7.60;6.85;;;26.90;99.90;;;;;;5039897;28;20183;-83
2022/07/30 06:52:03;;;;;;;7.07;6.40;;;26.90;99.90;;;;;;5041441;28;20288;-84
2022/07/30 06:54:29;;;;;;;7.82;7.00;;;26.70;99.90;;;;;;5036800;28;20207;-84
2022/07/30 06:56:55;;;;;;;8.18;7.53;;;26.60;99.90;;;;;;5035220;28;20191;-85
2022/07/30 06:59:21;;;;;;;8.30;7.60;;;26.60;99.90;;;;;;5034463;28;20179;-84
2022/07/30 07:01:48;;;;;;;10.77;9.88;;;26.60;99.90;;;;;;5034746;28;20194;-84
2022/07/30 07:04:14;;;;;;;9.27;8.45;;;26.90;99.90;;;;;;5031613;28;20281;-85
2022/07/30 07:06:40;;;;;;;9.45;8.75;;;26.90;99.90;;;;;;5034010;28;20190;-83
2022/07/30 07:09:06;;;;;;;8.50;7.80;;;26.90;99.90;;;;;;5040845;28;20182;-85
2022/07/30 07:11:32;;;;;;;10.68;7.03;;;27.10;99.90;;;;;;5049891;28;20187;-86
2022/07/30 07:13:58;;;;;;;6.95;6.20;;;27.10;99.90;;;;;;5058771;22;20210;-75
2022/07/30 07:16:25;;;;;;;7.60;6.88;;;27.30;99.90;;;;;;5054574;28;20200;-78
2022/07/30 07:18:51;;;;;;;8.70;7.65;;;27.10;99.90;;;;;;5054603;28;20273;-77
2022/07/30 07:21:18;;;;;;;10.07;9.15;;;27.10;99.90;;;;;;5055978;28;20699;-76
2022/07/30 07:23:44;;;;;;;6.97;6.28;;;27.30;99.90;;;;;;5056669;28;20167;-75
2022/07/30 07:26:11;;;;;;;8.77;7.00;;;27.40;99.00;;;;;;5074969;28;20197;-75
2022/07/30 07:28:38;;;;;;;6.05;5.55;;;27.60;99.90;;;;;;5075508;28;20173;-77
2022/07/30 07:31:05;;;;;;;8.10;7.07;;;27.90;99.60;;;;;;5072877;28;20185;-77
2022/07/30 07:33:31;;;;;;;10.15;7.57;;;27.70;97.50;;;;;;5071314;28;20552;-80
2022/07/30 07:35:56;;;;;;;8.05;6.57;;;27.40;97.80;;;;;;5071847;28;20201;-77
2022/07/30 07:38:22;;;;;;;9.82;6.13;;;27.20;97.50;;;;;;5070447;28;20634;-77
2022/07/30 07:40:48;;;;;;;8.05;6.32;;;27.10;98.10;;;;;;5072437;28;20222;-77
2022/07/30 07:43:14;;;;;;;7.43;5.55;;;27.00;96.80;;;;;;5071487;28;20788;-78
2022/07/30 07:45:44;;;;;;;7.80;5.68;;;27.10;97.90;;;;;;5072907;28;20202;-78
2022/07/30 07:48:11;;;;;;;6.85;6.18;;;27.10;96.90;;;;;;5071545;28;20569;-79
2022/07/30 07:50:37;;;;;;;6.18;5.78;;;26.70;97.00;;;;;;5072822;28;20181;-78
2022/07/30 07:53:04;;;;;;;7.10;6.50;;;26.70;97.80;;;;;;5065430;28;20304;-77
2022/07/30 07:55:30;;;;;;;7.07;6.50;;;26.90;97.10;;;;;;5058630;28;20279;-76
2022/07/30 07:57:56;;;;;;;7.75;6.28;;;26.90;96.50;;;;;;5052068;28;20269;-78
2022/07/30 08:00:23;;;;;;;6.80;6.20;;;26.60;96.50;;;;;;5052066;28;20262;-78
2022/07/30 08:02:49;;;;;;;10.23;7.63;;;26.30;96.50;;;;;;5056351;28;20187;-77
2022/07/30 08:05:16;;;;;;;8.70;6.53;;;26.40;97.00;;;;;;5072522;28;20235;-78
2022/07/30 08:07:43;;;;;;;5.53;5.13;;;26.60;95.80;;;;;;5077908;28;20192;-78
2022/07/30 08:10:10;;;;;;;9.35;6.00;;;26.60;96.20;;;;;;5089615;28;20189;-78
2022/07/30 08:12:36;;;;;;;12.95;11.65;;;26.70;96.30;;;;;;5099058;28;20185;-76
2022/07/30 08:15:03;;;;;;;27.60;24.05;;;26.70;95.70;;;;;;5085361;28;20641;-77
2022/07/30 08:17:29;;;;;;;22.85;20.33;;;26.60;95.70;;;;;;5075045;28;20205;-77
2022/07/30 08:20:01;;;;;;;10.48;9.43;;;26.70;95.20;;;;;;5076081;28;20201;-77
2022/07/30 08:22:27;;;;;;;8.02;7.30;;;27.00;95.00;;;;;;5076311;28;20228;-78
2022/07/30 08:24:53;;;;;;;12.70;10.52;;;27.10;93.80;;;;;;5068024;28;20202;-80
2022/07/30 08:27:19;;;;;;;17.92;16.05;;;27.40;94.50;;;;;;5097495;28;20646;-74
2022/07/30 08:29:45;;;;;;;10.57;9.27;;;27.30;93.80;;;;;;5091830;28;20669;-75
2022/07/30 08:32:11;;;;;;;8.52;7.65;;;27.20;93.90;;;;;;5099543;28;20212;-76
2022/07/30 08:34:37;;;;;;;14.63;13.07;;;27.20;92.60;;;;;;5089102;28;20216;-76
2022/07/30 08:37:03;;;;;;;9.48;8.52;;;27.10;92.80;;;;;;5079784;28;20216;-76
2022/07/30 08:39:29;;;;;;;8.27;6.85;;;27.20;92.70;;;;;;5082297;28;20174;-77
2022/07/30 08:41:56;;;;;;;8.00;7.28;;;27.20;90.90;;;;;;5086456;28;20570;-79
2022/07/30 08:44:23;;;;;;;7.13;6.03;;;27.40;92.20;;;;;;5074817;28;20292;-80
2022/07/30 08:46:52;;;;;;;5.88;5.38;;;27.70;91.40;;;;;;5075773;28;20178;-79
2022/07/30 08:49:18;;;;;;;5.20;4.70;;;28.10;90.60;;;;;;5078518;28;20703;-80
2022/07/30 08:51:44;;;;;;;9.68;5.35;;;28.50;90.10;;;;;;5080241;28;20189;-80
2022/07/30 08:54:10;;;;;;;6.18;5.20;;;28.50;90.00;;;;;;5080364;28;20201;-79
2022/07/30 08:56:37;;;;;;;11.70;7.20;;;28.40;88.60;;;;;;5079519;28;20642;-80
2022/07/30 08:59:03;;;;;;;8.70;7.63;;;28.40;86.70;;;;;;5077499;28;20200;-79
2022/07/30 09:01:29;;;;;;;8.27;7.32;;;28.50;84.90;;;;;;5078979;28;20177;-79
2022/07/30 09:03:55;;;;;;;9.95;7.28;;;28.60;85.50;;;;;;5077115;28;20220;-79
2022/07/30 09:06:20;;;;;;;9.55;8.73;;;29.10;82.70;;;;;;5075974;28;20181;-78
2022/07/30 09:08:47;;;;;;;7.72;7.03;;;29.40;83.70;;;;;;5076475;28;20194;-79
2022/07/30 09:11:13;;;;;;;6.70;6.10;;;29.50;82.30;;;;;;5075378;28;20215;-79
2022/07/30 09:13:41;;;;;;;7.07;6.35;;;29.10;80.50;;;;;;5074684;28;20182;-79
2022/07/30 09:16:18;;;;;;;7.93;6.22;;;29.10;80.40;;;;;;5092406;28;20558;-78
2022/07/30 09:18:44;;;;;;;6.75;6.15;;;29.30;79.80;;;;;;5078916;28;20557;-82
2022/07/30 09:21:23;;;;;;;6.72;6.32;;;28.80;78.80;;;;;;5076299;28;20180;-77
2022/07/30 09:24:06;;;;;;;10.68;9.70;;;28.10;79.50;;;;;;5075828;28;20209;-81
2022/07/30 09:26:54;;;;;;;11.02;10.02;;;27.90;82.00;;;;;;5075501;28;20192;-79
2022/07/30 09:29:23;;;;;;;8.93;8.43;;;27.80;80.80;;;;;;5074262;28;20757;-77
2022/07/30 09:31:57;;;;;;;8.75;7.80;;;28.10;81.10;;;;;;5075032;28;20843;-77
2022/07/30 09:34:35;;;;;;;7.85;7.07;;;28.50;80.60;;;;;;5072441;28;20326;-77
2022/07/30 09:37:16;;;;;;;6.57;6.07;;;29.50;77.40;;;;;;5071000;28;20191;-75
2022/07/30 09:39:43;;;;;;;7.45;6.72;;;29.90;76.70;;;;;;5060522;28;20232;-78
2022/07/30 09:42:27;;;;;;;6.82;6.25;;;29.90;74.40;;;;;;5055328;28;20182;-77
2022/07/30 09:45:11;;;;;;;4.55;4.22;;;28.90;74.70;;;;;;5071550;28;20193;-77
2022/07/30 09:47:43;;;;;;;6.45;4.82;;;28.70;76.20;;;;;;5080004;28;20601;-75
2022/07/30 09:50:12;;;;;;;5.88;4.78;;;28.60;75.90;;;;;;5076154;28;20300;-77
2022/07/30 09:52:41;;;;;;;6.22;5.63;;;28.50;76.20;;;;;;5074695;28;20177;-75
2022/07/30 09:55:07;;;;;;;5.03;4.68;;;29.00;77.70;;;;;;5075169;28;20201;-76
2022/07/30 09:57:34;;;;;;;6.05;5.55;;;29.30;74.40;;;;;;5074764;28;20177;-76
2022/07/30 10:00:21;;;;;;;6.82;5.88;;;29.70;72.80;;;;;;5075387;28;20243;-76
2022/07/30 10:02:49;;;;;;;14.82;13.75;;;29.90;72.80;;;;;;5075618;28;20173;-76
2022/07/30 10:05:18;;;;;;;15.20;14.30;;;29.80;71.60;;;;;;5074797;28;20201;-77
2022/07/30 10:07:55;;;;;;;13.75;12.88;;;29.70;71.40;;;;;;5071661;28;20189;-77
2022/07/30 10:10:29;;;;;;;13.20;12.30;;;29.70;70.20;;;;;;5072498;28;20189;-76
2022/07/30 10:12:58;;;;;;;6.38;5.95;;;29.00;72.90;;;;;;5075405;28;20183;-75
2022/07/30 10:15:29;;;;;;;8.20;7.63;;;29.10;74.80;;;;;;5079906;28;20209;-76
2022/07/30 10:17:57;;;;;;;6.38;5.93;;;28.90;72.70;;;;;;5083687;28;20169;-75
2022/07/30 10:20:23;;;;;;;13.20;12.43;;;29.30;73.30;;;;;;5070786;28;20196;-75
2022/07/30 10:22:50;;;;;;;10.63;9.93;;;29.50;69.10;;;;;;5051960;28;20608;-75
2022/07/30 10:25:21;;;;;;;11.15;10.48;;;29.30;70.20;;;;;;5069794;28;20204;-76
2022/07/30 10:27:48;;;;;;;11.68;10.98;;;29.80;70.60;;;;;;5070782;28;20193;-77
2022/07/30 10:30:14;;;;;;;12.82;11.98;;;30.00;69.50;;;;;;5066394;28;20174;-78
2022/07/30 10:32:43;;;;;;;11.63;10.75;;;29.10;70.40;;;;;;5054389;28;20247;-77
2022/07/30 10:35:11;;;;;;;7.43;6.72;;;28.20;72.10;;;;;;5079254;28;20201;-76
2022/07/30 10:37:46;;;;;;;5.32;4.90;;;27.60;72.50;;;;;;5070463;28;20181;-77
2022/07/30 10:40:32;;;;;;;5.78;5.10;;;27.40;72.90;;;;;;5074627;28;20177;-76
2022/07/30 10:43:20;;;;;;;4.90;4.68;;;27.60;72.90;;;;;;5074928;28;20212;-77
2022/07/30 10:46:01;;;;;;;6.85;6.22;;;27.80;73.50;;;;;;5073297;28;20198;-76
2022/07/30 10:48:31;;;;;;;8.73;8.23;;;27.30;73.70;;;;;;5072289;28;20768;-77
2022/07/30 10:50:58;;;;;;;13.55;12.30;;;26.90;75.40;;;;;;5078392;28;20262;-74
2022/07/30 10:53:34;;;;;;;11.32;10.68;;;26.90;75.80;;;;;;5077994;28;20780;-76
2022/07/30 10:56:30;;;;;;;8.73;8.02;;;27.10;75.20;;;;;;5072204;28;20209;-76
2022/07/30 10:59:03;;;;;;;5.85;4.38;;;28.30;72.80;;;;;;5059501;28;20201;-77
2022/07/30 11:01:49;;;;;;;5.68;5.28;;;29.40;72.10;;;;;;5075083;28;20286;-77
2022/07/30 11:04:18;;;;;;;13.07;12.23;;;30.40;67.00;;;;;;5076652;28;20201;-87
2022/07/30 11:06:44;;;;;;;8.13;7.45;;;30.70;68.50;;;;;;5052716;28;20210;-88
2022/07/30 11:09:40;;;;;;;8.48;7.70;;;30.50;65.20;;;;;;5051494;28;20182;-89
2022/07/30 11:12:06;;;;;;;9.70;8.95;;;30.70;64.60;;;;;;5051560;28;20186;-90
2022/07/30 11:14:44;;;;;;;5.88;5.38;;;30.40;63.60;;;;;;5055280;28;20224;-89
2022/07/30 11:17:17;;;;;;;6.13;5.65;;;29.70;67.20;;;;;;5072512;28;20180;-90
2022/07/30 11:20:03;;;;;;;16.08;15.05;;;29.40;65.90;;;;;;5072174;28;20166;-90
2022/07/30 11:22:35;;;;;;;14.30;13.60;;;28.90;68.60;;;;;;5073184;28;20184;-89
2022/07/30 11:25:02;;;;;;;10.30;9.73;;;29.20;67.10;;;;;;5072068;28;20210;-89
2022/07/30 11:27:49;;;;;;;10.07;9.38;;;28.50;67.10;;;;;;5076591;28;20173;-89
2022/07/30 11:30:15;;;;;;;13.82;12.63;;;28.50;68.30;;;;;;5097996;28;20211;-89
2022/07/30 11:32:42;;;;;;;10.25;9.55;;;29.60;65.90;;;;;;5077336;28;20185;-90
2022/07/30 11:35:22;;;;;;;6.65;6.15;;;30.10;64.70;;;;;;5071603;28;20206;-90
2022/07/30 11:37:58;;;;;;;4.63;4.43;;;30.00;63.60;;;;;;5074835;28;20177;-89
2022/07/30 11:40:32;;;;;;;11.23;10.52;;;30.70;62.60;;;;;;5075922;28;20188;-91
2022/07/30 11:43:18;;;;;;;23.90;22.80;;;30.60;63.00;;;;;;5075591;28;20182;-90
2022/07/30 11:45:45;;;;;;;5.15;4.68;;;30.00;62.70;;;;;;5082611;28;20781;-89
2022/07/30 11:48:14;;;;;;;16.63;15.60;;;30.20;64.00;;;;;;5080129;28;20189;-89
2022/07/30 11:50:41;;;;;;;18.05;17.05;;;30.20;61.10;;;;;;5093672;28;20192;-89
2022/07/30 11:53:18;;;;;;;36.50;34.35;;;30.40;61.20;;;;;;5079335;28;20190;-90
2022/07/30 11:55:58;;;;;;;22.75;21.50;;;30.50;60.80;;;;;;5077320;28;20248;-90
2022/07/30 11:58:30;;;;;;;8.55;8.10;;;29.60;62.30;;;;;;5085850;28;20272;-90
2022/07/30 12:01:12;;;;;;;8.60;7.95;;;29.40;63.20;;;;;;5075591;28;20196;-90
2022/07/30 12:03:44;;;;;;;15.63;14.63;;;30.40;61.40;;;;;;5075557;28;20288;-90
2022/07/30 12:06:16;;;;;;;119.30;113.50;;;31.90;60.70;;;;;;5075891;28;20201;-90
2022/07/30 12:08:47;;;;;;;354.20;335.95;;;33.20;57.60;;;;;;5091367;28;20176;-89
2022/07/30 12:11:14;;;;;;;405.98;383.90;;;33.40;54.90;;;;;;5092844;28;20236;-90
2022/07/30 12:13:44;;;;;;;455.45;430.20;;;33.80;54.20;;;;;;5086088;28;20185;-90
2022/07/30 12:16:16;;;;;;;300.20;285.15;;;34.10;54.10;;;;;;5086075;28;20276;-90
2022/07/30 12:18:43;;;;;;;198.85;189.18;;;34.30;51.90;;;;;;5083200;28;20527;-89
2022/07/30 12:21:16;;;;;;;191.25;181.85;;;33.80;51.00;;;;;;5075904;28;20181;-89
2022/07/30 12:24:04;;;;;;;283.60;269.48;;;33.80;51.10;;;;;;5075330;28;20181;-89
2022/07/30 12:26:32;;;;;;;354.92;336.63;;;32.10;53.30;;;;;;5075336;28;20189;-89
2022/07/30 12:29:02;;;;;;;342.30;324.73;;;32.10;53.20;;;;;;5074266;28;20647;-90
2022/07/30 12:31:28;;;;;;;288.52;273.98;;;32.90;52.70;;;;;;5074441;28;20173;-88
2022/07/30 12:33:55;;;;;;;328.33;311.67;;;33.10;51.90;;;;;;5074434;28;20268;-88
2022/07/30 12:36:39;;;;;;;375.15;355.40;;;32.50;52.40;;;;;;5075724;28;20199;-89
2022/07/30 12:39:16;;;;;;;317.98;302.08;;;32.50;52.40;;;;;;5073896;28;20182;-89
2022/07/30 12:41:48;;;;;;;370.30;350.83;;;32.70;51.70;;;;;;5074208;28;20231;-89